sensor_id;sensor_type;location;lat;lon;timestamp;temperature;humidity
23271;DHT22;11804;51.118;17.058;2023-05-14T00:00:54;12.40;94.20
23271;DHT22;11804;51.118;17.058;2023-05-14T00:03:22;12.40;93.70
23271;DHT22;11804;51.118;17.058;2023-05-14T00:05:49;12.30;94.40
23271;DHT22;11804;51.118;17.058;2023-05-14T00:08:17;12.30;94.80
23271;DHT22;11804;51.118;17.058;2023-05-14T00:10:45;12.30;96.10
23271;DHT22;11804;51.118;17.058;2023-05-14T00:13:13;12.20;97.10
23271;DHT22;11804;51.118;17.058;2023-05-14T00:15:41;12.10;97.00
23271;DHT22;11804;51.118;17.058;2023-05-14T00:18:08;12.10;97.00
23271;DHT22;11804;51.118;17.058;2023-05-14T00:20:37;12.00;97.00
23271;DHT22;11804;51.118;17.058;2023-05-14T00:23:05;12.00;97.40
23271;DHT22;11804;51.118;17.058;2023-05-14T00:25:33;12.00;97.20
23271;DHT22;11804;51.118;17.058;2023-05-14T00:28:02;12.00;98.10
23271;DHT22;11804;51.118;17.058;2023-05-14T00:30:31;12.00;98.30
23271;DHT22;11804;51.118;17.058;2023-05-14T00:32:59;12.00;98.60
23271;DHT22;11804;51.118;17.058;2023-05-14T00:35:26;12.00;99.40
23271;DHT22;11804;51.118;17.058;2023-05-14T00:37:54;11.80;99.90
23271;DHT22;11804;51.118;17.058;2023-05-14T00:40:24;11.50;99.90
23271;DHT22;11804;51.118;17.058;2023-05-14T00:42:53;11.30;99.90
23271;DHT22;11804;51.118;17.058;2023-05-14T00:45:21;11.30;99.90
23271;DHT22;11804;51.118;17.058;2023-05-14T00:47:50;11.40;99.90
23271;DHT22;11804;51.118;17.058;2023-05-14T00:50:18;11.40;99.90
23271;DHT22;11804;51.118;17.058;2023-05-14T00:52:47;11.20;99.90
23271;DHT22;11804;51.118;17.058;2023-05-14T00:55:15;11.20;99.90
23271;DHT22;11804;51.118;17.058;2023-05-14T00:57:43;11.30;99.90
23271;DHT22;11804;51.118;17.058;2023-05-14T01:00:11;11.40;99.90
23271;DHT22;11804;51.118;17.058;2023-05-14T01:02:39;11.30;99.90
23271;DHT22;11804;51.118;17.058;2023-05-14T01:05:07;11.50;99.90
23271;DHT22;11804;51.118;17.058;2023-05-14T01:13:18;11.60;99.90
23271;DHT22;11804;51.118;17.058;2023-05-14T01:15:44;11.60;99.90
23271;DHT22;11804;51.118;17.058;2023-05-14T01:18:15;11.60;99.90
23271;DHT22;11804;51.118;17.058;2023-05-14T01:20:43;11.40;99.90
23271;DHT22;11804;51.118;17.058;2023-05-14T01:23:12;11.50;99.90
23271;DHT22;11804;51.118;17.058;2023-05-14T01:25:41;11.50;99.90
23271;DHT22;11804;51.118;17.058;2023-05-14T01:28:17;11.50;99.90
23271;DHT22;11804;51.118;17.058;2023-05-14T01:33:19;11.70;99.90
23271;DHT22;11804;51.118;17.058;2023-05-14T01:35:49;11.80;99.90
23271;DHT22;11804;51.118;17.058;2023-05-14T01:38:19;11.90;99.90
23271;DHT22;11804;51.118;17.058;2023-05-14T01:40:48;12.00;99.90
23271;DHT22;11804;51.118;17.058;2023-05-14T01:43:17;12.10;99.90
23271;DHT22;11804;51.118;17.058;2023-05-14T01:45:45;12.10;99.90
23271;DHT22;11804;51.118;17.058;2023-05-14T01:48:14;12.00;99.90
23271;DHT22;11804;51.118;17.058;2023-05-14T01:50:42;12.00;99.90
23271;DHT22;11804;51.118;17.058;2023-05-14T01:53:11;11.80;99.90
23271;DHT22;11804;51.118;17.058;2023-05-14T01:55:38;11.70;99.90
23271;DHT22;11804;51.118;17.058;2023-05-14T01:58:06;11.60;99.90
23271;DHT22;11804;51.118;17.058;2023-05-14T02:00:34;11.60;99.90
23271;DHT22;11804;51.118;17.058;2023-05-14T02:03:02;11.40;99.90
23271;DHT22;11804;51.118;17.058;2023-05-14T02:05:29;11.30;99.90
23271;DHT22;11804;51.118;17.058;2023-05-14T02:07:57;11.30;99.90
23271;DHT22;11804;51.118;17.058;2023-05-14T02:10:24;11.30;99.90
23271;DHT22;11804;51.118;17.058;2023-05-14T02:12:52;11.30;99.90
23271;DHT22;11804;51.118;17.058;2023-05-14T02:15:20;11.30;99.90
23271;DHT22;11804;51.118;17.058;2023-05-14T02:17:47;11.30;99.90
23271;DHT22;11804;51.118;17.058;2023-05-14T02:20:15;11.30;99.90
23271;DHT22;11804;51.118;17.058;2023-05-14T02:22:43;11.30;99.90
23271;DHT22;11804;51.118;17.058;2023-05-14T02:25:11;11.40;99.90
23271;DHT22;11804;51.118;17.058;2023-05-14T02:27:39;11.40;99.90
23271;DHT22;11804;51.118;17.058;2023-05-14T02:30:08;11.30;99.90
23271;DHT22;11804;51.118;17.058;2023-05-14T02:32:36;11.30;99.90
23271;DHT22;11804;51.118;17.058;2023-05-14T02:35:04;11.10;99.90
23271;DHT22;11804;51.118;17.058;2023-05-14T02:37:32;11.10;99.90
23271;DHT22;11804;51.118;17.058;2023-05-14T02:40:01;11.00;99.90
23271;DHT22;11804;51.118;17.058;2023-05-14T02:42:30;11.00;99.90
23271;DHT22;11804;51.118;17.058;2023-05-14T02:44:59;10.90;99.90
23271;DHT22;11804;51.118;17.058;2023-05-14T02:47:26;10.80;99.90
23271;DHT22;11804;51.118;17.058;2023-05-14T02:49:54;10.70;99.90
23271;DHT22;11804;51.118;17.058;2023-05-14T02:52:21;10.70;99.90
23271;DHT22;11804;51.118;17.058;2023-05-14T02:54:49;10.80;99.90
23271;DHT22;11804;51.118;17.058;2023-05-14T02:57:17;10.90;99.90
23271;DHT22;11804;51.118;17.058;2023-05-14T02:59:44;10.90;99.90
23271;DHT22;11804;51.118;17.058;2023-05-14T03:02:12;10.80;99.90
23271;DHT22;11804;51.118;17.058;2023-05-14T03:04:39;10.80;99.90
23271;DHT22;11804;51.118;17.058;2023-05-14T03:07:07;10.80;99.90
23271;DHT22;11804;51.118;17.058;2023-05-14T03:09:35;10.90;99.90
23271;DHT22;11804;51.118;17.058;2023-05-14T03:12:02;10.90;99.90
23271;DHT22;11804;51.118;17.058;2023-05-14T03:14:30;11.10;99.90
23271;DHT22;11804;51.118;17.058;2023-05-14T03:17:00;11.20;99.90
23271;DHT22;11804;51.118;17.058;2023-05-14T03:19:29;11.00;99.90
23271;DHT22;11804;51.118;17.058;2023-05-14T03:21:57;11.10;99.90
23271;DHT22;11804;51.118;17.058;2023-05-14T03:24:24;11.20;99.90
23271;DHT22;11804;51.118;17.058;2023-05-14T03:26:52;11.10;99.90
23271;DHT22;11804;51.118;17.058;2023-05-14T03:29:20;11.00;99.90
23271;DHT22;11804;51.118;17.058;2023-05-14T03:31:47;11.10;99.90
23271;DHT22;11804;51.118;17.058;2023-05-14T03:34:16;11.10;99.90
23271;DHT22;11804;51.118;17.058;2023-05-14T03:36:43;11.20;99.90
23271;DHT22;11804;51.118;17.058;2023-05-14T03:39:11;11.10;99.90
23271;DHT22;11804;51.118;17.058;2023-05-14T03:41:42;11.00;99.90
23271;DHT22;11804;51.118;17.058;2023-05-14T03:44:09;11.00;99.90
23271;DHT22;11804;51.118;17.058;2023-05-14T03:46:37;11.10;99.90
23271;DHT22;11804;51.118;17.058;2023-05-14T03:49:05;11.10;99.90
23271;DHT22;11804;51.118;17.058;2023-05-14T03:51:33;11.10;99.90
23271;DHT22;11804;51.118;17.058;2023-05-14T03:54:03;11.20;99.90
23271;DHT22;11804;51.118;17.058;2023-05-14T03:56:31;11.10;99.90
23271;DHT22;11804;51.118;17.058;2023-05-14T03:59:01;11.00;99.90
23271;DHT22;11804;51.118;17.058;2023-05-14T04:01:29;11.20;99.90
23271;DHT22;11804;51.118;17.058;2023-05-14T04:03:58;11.30;99.90
23271;DHT22;11804;51.118;17.058;2023-05-14T04:06:25;11.10;99.90
23271;DHT22;11804;51.118;17.058;2023-05-14T04:08:53;11.10;99.90
23271;DHT22;11804;51.118;17.058;2023-05-14T04:11:21;11.10;99.90
23271;DHT22;11804;51.118;17.058;2023-05-14T04:13:48;11.30;99.90
23271;DHT22;11804;51.118;17.058;2023-05-14T04:16:16;11.40;99.90
23271;DHT22;11804;51.118;17.058;2023-05-14T04:18:43;11.80;99.90
23271;DHT22;11804;51.118;17.058;2023-05-14T04:21:11;12.90;99.90
23271;DHT22;11804;51.118;17.058;2023-05-14T04:23:39;13.80;94.00
23271;DHT22;11804;51.118;17.058;2023-05-14T04:26:06;14.80;87.60
23271;DHT22;11804;51.118;17.058;2023-05-14T04:28:34;15.10;81.20
23271;DHT22;11804;51.118;17.058;2023-05-14T04:31:02;15.30;79.90
23271;DHT22;11804;51.118;17.058;2023-05-14T04:33:29;15.40;79.40
23271;DHT22;11804;51.118;17.058;2023-05-14T04:35:57;15.20;77.50
23271;DHT22;11804;51.118;17.058;2023-05-14T04:38:25;15.20;76.60
23271;DHT22;11804;51.118;17.058;2023-05-14T04:40:53;15.70;74.30
23271;DHT22;11804;51.118;17.058;2023-05-14T04:43:21;15.70;73.50
23271;DHT22;11804;51.118;17.058;2023-05-14T04:45:48;15.70;72.40
23271;DHT22;11804;51.118;17.058;2023-05-14T04:48:17;15.50;73.10
23271;DHT22;11804;51.118;17.058;2023-05-14T04:50:45;15.40;72.30
23271;DHT22;11804;51.118;17.058;2023-05-14T04:53:15;14.70;77.30
23271;DHT22;11804;51.118;17.058;2023-05-14T04:55:45;14.80;76.90
23271;DHT22;11804;51.118;17.058;2023-05-14T04:58:12;14.90;77.10
23271;DHT22;11804;51.118;17.058;2023-05-14T05:00:40;15.00;75.90
23271;DHT22;11804;51.118;17.058;2023-05-14T05:03:08;15.80;73.60
23271;DHT22;11804;51.118;17.058;2023-05-14T05:05:35;16.90;68.20
23271;DHT22;11804;51.118;17.058;2023-05-14T05:08:03;17.50;63.60
23271;DHT22;11804;51.118;17.058;2023-05-14T05:10:31;17.20;63.60
23271;DHT22;11804;51.118;17.058;2023-05-14T05:12:59;16.60;65.00
23271;DHT22;11804;51.118;17.058;2023-05-14T05:15:27;16.60;66.40
23271;DHT22;11804;51.118;17.058;2023-05-14T05:17:55;16.90;64.60
23271;DHT22;11804;51.118;17.058;2023-05-14T05:20:22;17.40;63.20
23271;DHT22;11804;51.118;17.058;2023-05-14T05:22:51;16.80;63.00
23271;DHT22;11804;51.118;17.058;2023-05-14T05:25:20;16.90;63.60
23271;DHT22;11804;51.118;17.058;2023-05-14T05:27:47;16.80;63.40
23271;DHT22;11804;51.118;17.058;2023-05-14T05:30:15;16.90;63.50
23271;DHT22;11804;51.118;17.058;2023-05-14T05:32:43;16.50;64.50
23271;DHT22;11804;51.118;17.058;2023-05-14T05:35:10;16.40;65.50
23271;DHT22;11804;51.118;17.058;2023-05-14T05:37:38;16.00;67.60
23271;DHT22;11804;51.118;17.058;2023-05-14T05:40:07;16.00;68.80
23271;DHT22;11804;51.118;17.058;2023-05-14T05:42:35;16.70;65.60
23271;DHT22;11804;51.118;17.058;2023-05-14T05:45:04;16.80;64.10
23271;DHT22;11804;51.118;17.058;2023-05-14T05:47:32;15.90;66.20
23271;DHT22;11804;51.118;17.058;2023-05-14T05:49:59;15.70;69.50
23271;DHT22;11804;51.118;17.058;2023-05-14T05:52:27;15.70;70.20
23271;DHT22;11804;51.118;17.058;2023-05-14T05:54:55;15.60;70.20
23271;DHT22;11804;51.118;17.058;2023-05-14T05:57:22;14.90;73.10
23271;DHT22;11804;51.118;17.058;2023-05-14T05:59:52;15.40;72.80
23271;DHT22;11804;51.118;17.058;2023-05-14T06:02:19;15.50;72.70
23271;DHT22;11804;51.118;17.058;2023-05-14T06:04:47;15.60;73.00
23271;DHT22;11804;51.118;17.058;2023-05-14T06:07:14;15.70;72.20
23271;DHT22;11804;51.118;17.058;2023-05-14T06:09:42;15.60;72.90
23271;DHT22;11804;51.118;17.058;2023-05-14T06:12:10;15.60;72.70
23271;DHT22;11804;51.118;17.058;2023-05-14T06:14:37;15.70;71.90
23271;DHT22;11804;51.118;17.058;2023-05-14T06:17:05;14.70;76.20
23271;DHT22;11804;51.118;17.058;2023-05-14T06:19:33;14.50;80.60
23271;DHT22;11804;51.118;17.058;2023-05-14T06:22:00;14.60;81.10
23271;DHT22;11804;51.118;17.058;2023-05-14T06:24:28;14.60;82.10
23271;DHT22;11804;51.118;17.058;2023-05-14T06:26:56;14.60;83.10
23271;DHT22;11804;51.118;17.058;2023-05-14T06:29:24;14.70;82.30
23271;DHT22;11804;51.118;17.058;2023-05-14T06:31:52;15.00;81.30
23271;DHT22;11804;51.118;17.058;2023-05-14T06:34:19;15.70;79.10
23271;DHT22;11804;51.118;17.058;2023-05-14T06:36:47;16.20;75.70
23271;DHT22;11804;51.118;17.058;2023-05-14T06:39:15;16.30;74.50
23271;DHT22;11804;51.118;17.058;2023-05-14T06:41:42;16.10;74.90
23271;DHT22;11804;51.118;17.058;2023-05-14T06:44:10;16.60;74.80
23271;DHT22;11804;51.118;17.058;2023-05-14T06:46:37;18.10;66.70
23271;DHT22;11804;51.118;17.058;2023-05-14T06:49:05;18.40;63.90
23271;DHT22;11804;51.118;17.058;2023-05-14T06:51:33;20.10;57.80
23271;DHT22;11804;51.118;17.058;2023-05-14T06:54:00;20.50;55.00
23271;DHT22;11804;51.118;17.058;2023-05-14T06:56:28;20.90;53.20
23271;DHT22;11804;51.118;17.058;2023-05-14T06:58:56;20.70;53.30
23271;DHT22;11804;51.118;17.058;2023-05-14T07:01:23;20.60;53.90
23271;DHT22;11804;51.118;17.058;2023-05-14T07:03:51;21.40;51.40
23271;DHT22;11804;51.118;17.058;2023-05-14T07:06:18;21.60;52.00
23271;DHT22;11804;51.118;17.058;2023-05-14T07:08:46;22.70;49.20
23271;DHT22;11804;51.118;17.058;2023-05-14T07:11:14;23.80;46.30
23271;DHT22;11804;51.118;17.058;2023-05-14T07:13:42;24.40;44.50
23271;DHT22;11804;51.118;17.058;2023-05-14T07:16:09;25.50;40.70
23271;DHT22;11804;51.118;17.058;2023-05-14T07:18:37;22.70;43.40
23271;DHT22;11804;51.118;17.058;2023-05-14T07:21:05;20.30;48.60
23271;DHT22;11804;51.118;17.058;2023-05-14T07:23:33;19.30;53.20
23271;DHT22;11804;51.118;17.058;2023-05-14T07:26:07;20.30;50.20
23271;DHT22;11804;51.118;17.058;2023-05-14T07:28:32;20.10;50.30
23271;DHT22;11804;51.118;17.058;2023-05-14T07:31:00;21.50;48.20
23271;DHT22;11804;51.118;17.058;2023-05-14T07:33:28;21.90;46.20
23271;DHT22;11804;51.118;17.058;2023-05-14T07:35:55;21.90;45.70
23271;DHT22;11804;51.118;17.058;2023-05-14T07:38:23;21.80;45.40
23271;DHT22;11804;51.118;17.058;2023-05-14T07:40:50;20.80;47.70
23271;DHT22;11804;51.118;17.058;2023-05-14T07:43:18;21.00;47.10
23271;DHT22;11804;51.118;17.058;2023-05-14T07:45:46;20.30;47.50
23271;DHT22;11804;51.118;17.058;2023-05-14T07:48:13;20.50;46.60
23271;DHT22;11804;51.118;17.058;2023-05-14T07:50:41;21.20;45.70
23271;DHT22;11804;51.118;17.058;2023-05-14T07:53:08;21.90;44.90
23271;DHT22;11804;51.118;17.058;2023-05-14T07:55:36;20.90;44.80
23271;DHT22;11804;51.118;17.058;2023-05-14T07:58:04;19.90;47.60
23271;DHT22;11804;51.118;17.058;2023-05-14T08:00:32;19.50;49.10
23271;DHT22;11804;51.118;17.058;2023-05-14T08:02:59;20.30;48.50
23271;DHT22;11804;51.118;17.058;2023-05-14T08:05:27;20.60;46.20
23271;DHT22;11804;51.118;17.058;2023-05-14T08:07:55;21.10;46.90
23271;DHT22;11804;51.118;17.058;2023-05-14T08:10:24;20.60;46.70
23271;DHT22;11804;51.118;17.058;2023-05-14T08:12:52;21.50;45.50
23271;DHT22;11804;51.118;17.058;2023-05-14T08:15:20;21.80;45.50
23271;DHT22;11804;51.118;17.058;2023-05-14T08:17:47;23.40;42.10
23271;DHT22;11804;51.118;17.058;2023-05-14T08:20:15;22.50;41.30
23271;DHT22;11804;51.118;17.058;2023-05-14T08:22:43;22.00;42.20
23271;DHT22;11804;51.118;17.058;2023-05-14T08:25:11;20.20;44.50
23271;DHT22;11804;51.118;17.058;2023-05-14T08:27:38;20.50;45.00
23271;DHT22;11804;51.118;17.058;2023-05-14T08:30:07;21.10;44.70
23271;DHT22;11804;51.118;17.058;2023-05-14T08:32:35;22.10;43.30
23271;DHT22;11804;51.118;17.058;2023-05-14T08:35:04;20.80;44.10
23271;DHT22;11804;51.118;17.058;2023-05-14T08:37:32;20.50;45.10
23271;DHT22;11804;51.118;17.058;2023-05-14T08:40:00;20.40;45.30
23271;DHT22;11804;51.118;17.058;2023-05-14T08:42:28;20.40;45.40
23271;DHT22;11804;51.118;17.058;2023-05-14T08:45:03;21.40;44.20
23271;DHT22;11804;51.118;17.058;2023-05-14T08:47:32;21.10;44.50
23271;DHT22;11804;51.118;17.058;2023-05-14T08:52:31;20.40;43.60
23271;DHT22;11804;51.118;17.058;2023-05-14T08:55:00;19.80;44.20
23271;DHT22;11804;51.118;17.058;2023-05-14T08:57:31;20.00;44.90
23271;DHT22;11804;51.118;17.058;2023-05-14T09:00:04;21.70;41.40
23271;DHT22;11804;51.118;17.058;2023-05-14T09:02:34;21.70;41.00
23271;DHT22;11804;51.118;17.058;2023-05-14T09:05:02;21.70;40.00
23271;DHT22;11804;51.118;17.058;2023-05-14T09:07:30;20.70;42.80
23271;DHT22;11804;51.118;17.058;2023-05-14T09:10:00;20.60;43.30
23271;DHT22;11804;51.118;17.058;2023-05-14T09:12:28;20.60;43.10
23271;DHT22;11804;51.118;17.058;2023-05-14T09:14:56;20.30;43.30
23271;DHT22;11804;51.118;17.058;2023-05-14T09:17:25;21.50;42.50
23271;DHT22;11804;51.118;17.058;2023-05-14T09:19:53;22.50;40.10
23271;DHT22;11804;51.118;17.058;2023-05-14T09:22:21;22.30;40.90
23271;DHT22;11804;51.118;17.058;2023-05-14T09:25:03;21.40;42.00
23271;DHT22;11804;51.118;17.058;2023-05-14T09:27:32;21.10;42.30
23271;DHT22;11804;51.118;17.058;2023-05-14T09:30:13;20.50;44.20
23271;DHT22;11804;51.118;17.058;2023-05-14T09:32:43;20.90;44.10
23271;DHT22;11804;51.118;17.058;2023-05-14T09:35:24;21.80;41.70
23271;DHT22;11804;51.118;17.058;2023-05-14T09:37:53;22.30;41.50
23271;DHT22;11804;51.118;17.058;2023-05-14T09:40:22;22.70;39.80
23271;DHT22;11804;51.118;17.058;2023-05-14T09:42:50;23.50;38.20
23271;DHT22;11804;51.118;17.058;2023-05-14T09:45:18;22.80;37.80
23271;DHT22;11804;51.118;17.058;2023-05-14T09:47:45;22.10;40.60
23271;DHT22;11804;51.118;17.058;2023-05-14T09:50:13;21.80;40.30
23271;DHT22;11804;51.118;17.058;2023-05-14T09:52:41;21.20;42.10
23271;DHT22;11804;51.118;17.058;2023-05-14T09:55:09;20.40;42.90
23271;DHT22;11804;51.118;17.058;2023-05-14T09:57:38;20.20;44.20
23271;DHT22;11804;51.118;17.058;2023-05-14T10:00:07;21.40;41.30
23271;DHT22;11804;51.118;17.058;2023-05-14T10:02:37;21.60;40.90
23271;DHT22;11804;51.118;17.058;2023-05-14T10:05:10;21.50;42.10
23271;DHT22;11804;51.118;17.058;2023-05-14T10:07:46;21.50;42.10
23271;DHT22;11804;51.118;17.058;2023-05-14T10:10:12;20.90;43.20
23271;DHT22;11804;51.118;17.058;2023-05-14T10:12:40;20.60;43.60
23271;DHT22;11804;51.118;17.058;2023-05-14T10:15:19;19.70;45.40
23271;DHT22;11804;51.118;17.058;2023-05-14T10:17:51;19.70;45.70
23271;DHT22;11804;51.118;17.058;2023-05-14T10:20:18;19.90;46.30
23271;DHT22;11804;51.118;17.058;2023-05-14T10:22:47;21.40;43.10
23271;DHT22;11804;51.118;17.058;2023-05-14T10:25:15;22.50;40.30
23271;DHT22;11804;51.118;17.058;2023-05-14T10:27:43;23.20;39.60
23271;DHT22;11804;51.118;17.058;2023-05-14T10:30:11;22.90;39.90
23271;DHT22;11804;51.118;17.058;2023-05-14T10:32:39;22.80;39.70
23271;DHT22;11804;51.118;17.058;2023-05-14T10:35:17;21.30;41.40
23271;DHT22;11804;51.118;17.058;2023-05-14T10:37:46;20.40;43.60
23271;DHT22;11804;51.118;17.058;2023-05-14T10:40:14;20.90;43.40
23271;DHT22;11804;51.118;17.058;2023-05-14T10:42:45;21.70;42.20
23271;DHT22;11804;51.118;17.058;2023-05-14T10:45:14;21.20;42.20
23271;DHT22;11804;51.118;17.058;2023-05-14T10:47:46;20.50;43.60
23271;DHT22;11804;51.118;17.058;2023-05-14T10:50:15;20.00;44.00
23271;DHT22;11804;51.118;17.058;2023-05-14T10:52:44;19.90;45.00
23271;DHT22;11804;51.118;17.058;2023-05-14T10:55:14;20.40;44.50
23271;DHT22;11804;51.118;17.058;2023-05-14T10:57:43;21.20;43.20
23271;DHT22;11804;51.118;17.058;2023-05-14T11:00:13;20.60;42.60
23271;DHT22;11804;51.118;17.058;2023-05-14T11:02:42;19.90;44.00
23271;DHT22;11804;51.118;17.058;2023-05-14T11:05:12;20.20;43.80
23271;DHT22;11804;51.118;17.058;2023-05-14T11:07:43;20.50;43.00
23271;DHT22;11804;51.118;17.058;2023-05-14T11:10:12;20.80;43.40
23271;DHT22;11804;51.118;17.058;2023-05-14T11:12:42;21.20;42.30
23271;DHT22;11804;51.118;17.058;2023-05-14T11:15:12;21.40;41.80
23271;DHT22;11804;51.118;17.058;2023-05-14T11:17:41;21.40;42.50
23271;DHT22;11804;51.118;17.058;2023-05-14T11:20:10;21.50;42.50
23271;DHT22;11804;51.118;17.058;2023-05-14T11:22:39;20.90;43.10
23271;DHT22;11804;51.118;17.058;2023-05-14T11:25:08;21.10;43.00
23271;DHT22;11804;51.118;17.058;2023-05-14T11:27:39;21.00;43.20
23271;DHT22;11804;51.118;17.058;2023-05-14T11:30:17;21.10;43.00
23271;DHT22;11804;51.118;17.058;2023-05-14T11:32:46;21.60;43.40
23271;DHT22;11804;51.118;17.058;2023-05-14T11:35:14;21.40;42.00
23271;DHT22;11804;51.118;17.058;2023-05-14T11:37:43;21.30;42.80
23271;DHT22;11804;51.118;17.058;2023-05-14T11:40:17;21.60;43.00
23271;DHT22;11804;51.118;17.058;2023-05-14T11:42:45;21.30;41.40
23271;DHT22;11804;51.118;17.058;2023-05-14T11:45:22;20.90;42.50
23271;DHT22;11804;51.118;17.058;2023-05-14T11:47:42;21.40;41.40
23271;DHT22;11804;51.118;17.058;2023-05-14T11:50:10;21.60;41.20
23271;DHT22;11804;51.118;17.058;2023-05-14T11:52:40;22.00;40.20
23271;DHT22;11804;51.118;17.058;2023-05-14T11:55:10;21.40;40.40
23271;DHT22;11804;51.118;17.058;2023-05-14T11:57:39;21.10;42.00
23271;DHT22;11804;51.118;17.058;2023-05-14T12:00:08;21.60;41.00
23271;DHT22;11804;51.118;17.058;2023-05-14T12:02:38;22.10;40.20
23271;DHT22;11804;51.118;17.058;2023-05-14T12:05:07;22.10;39.90
23271;DHT22;11804;51.118;17.058;2023-05-14T12:07:37;22.30;41.30
23271;DHT22;11804;51.118;17.058;2023-05-14T12:10:06;22.30;39.70
23271;DHT22;11804;51.118;17.058;2023-05-14T12:12:35;22.20;39.90
23271;DHT22;11804;51.118;17.058;2023-05-14T12:15:11;22.00;39.90
23271;DHT22;11804;51.118;17.058;2023-05-14T12:17:39;21.80;41.20
23271;DHT22;11804;51.118;17.058;2023-05-14T12:20:10;21.50;41.10
23271;DHT22;11804;51.118;17.058;2023-05-14T12:22:39;21.50;41.30
23271;DHT22;11804;51.118;17.058;2023-05-14T12:25:12;21.60;40.80
23271;DHT22;11804;51.118;17.058;2023-05-14T12:27:39;21.20;41.60
23271;DHT22;11804;51.118;17.058;2023-05-14T12:30:08;21.00;42.70
23271;DHT22;11804;51.118;17.058;2023-05-14T12:32:38;21.20;42.20
23271;DHT22;11804;51.118;17.058;2023-05-14T12:35:09;21.50;41.80
23271;DHT22;11804;51.118;17.058;2023-05-14T12:37:36;21.30;41.00
23271;DHT22;11804;51.118;17.058;2023-05-14T12:40:07;20.90;42.50
23271;DHT22;11804;51.118;17.058;2023-05-14T12:42:35;20.80;42.70
23271;DHT22;11804;51.118;17.058;2023-05-14T12:45:04;20.70;42.70
23271;DHT22;11804;51.118;17.058;2023-05-14T12:47:34;20.90;42.80
23271;DHT22;11804;51.118;17.058;2023-05-14T12:50:03;20.90;42.00
23271;DHT22;11804;51.118;17.058;2023-05-14T12:52:32;21.30;42.20
23271;DHT22;11804;51.118;17.058;2023-05-14T12:54:59;21.90;41.20
23271;DHT22;11804;51.118;17.058;2023-05-14T12:57:27;22.30;40.20
23271;DHT22;11804;51.118;17.058;2023-05-14T12:59:56;21.90;40.60
23271;DHT22;11804;51.118;17.058;2023-05-14T13:02:23;22.10;40.40
23271;DHT22;11804;51.118;17.058;2023-05-14T13:04:51;22.40;39.90
23271;DHT22;11804;51.118;17.058;2023-05-14T13:07:19;22.10;39.40
23271;DHT22;11804;51.118;17.058;2023-05-14T13:09:46;21.90;40.00
23271;DHT22;11804;51.118;17.058;2023-05-14T13:12:14;22.00;40.40
23271;DHT22;11804;51.118;17.058;2023-05-14T13:14:41;22.10;39.30
23271;DHT22;11804;51.118;17.058;2023-05-14T13:17:09;22.00;39.30
23271;DHT22;11804;51.118;17.058;2023-05-14T13:19:37;22.30;39.50
23271;DHT22;11804;51.118;17.058;2023-05-14T13:22:04;22.50;39.80
23271;DHT22;11804;51.118;17.058;2023-05-14T13:24:34;22.60;40.10
23271;DHT22;11804;51.118;17.058;2023-05-14T13:27:05;21.90;39.90
23271;DHT22;11804;51.118;17.058;2023-05-14T13:29:32;21.30;41.50
23271;DHT22;11804;51.118;17.058;2023-05-14T13:32:00;21.00;41.00
23271;DHT22;11804;51.118;17.058;2023-05-14T13:34:27;21.00;40.70
23271;DHT22;11804;51.118;17.058;2023-05-14T13:36:55;20.60;41.00
23271;DHT22;11804;51.118;17.058;2023-05-14T13:39:23;20.60;41.30
23271;DHT22;11804;51.118;17.058;2023-05-14T13:41:53;21.10;41.30
23271;DHT22;11804;51.118;17.058;2023-05-14T13:44:22;21.50;40.40
23271;DHT22;11804;51.118;17.058;2023-05-14T13:46:50;21.30;40.00
23271;DHT22;11804;51.118;17.058;2023-05-14T13:49:19;20.90;40.30
23271;DHT22;11804;51.118;17.058;2023-05-14T13:51:46;20.50;40.60
23271;DHT22;11804;51.118;17.058;2023-05-14T13:54:14;20.90;41.10
23271;DHT22;11804;51.118;17.058;2023-05-14T13:56:42;21.40;40.60
23271;DHT22;11804;51.118;17.058;2023-05-14T13:59:09;21.70;40.80
23271;DHT22;11804;51.118;17.058;2023-05-14T14:01:37;22.00;40.40
23271;DHT22;11804;51.118;17.058;2023-05-14T14:04:05;22.10;41.30
23271;DHT22;11804;51.118;17.058;2023-05-14T14:06:32;21.30;42.60
23271;DHT22;11804;51.118;17.058;2023-05-14T14:09:00;21.60;42.70
23271;DHT22;11804;51.118;17.058;2023-05-14T14:11:27;20.90;43.80
23271;DHT22;11804;51.118;17.058;2023-05-14T14:13:55;20.40;45.10
23271;DHT22;11804;51.118;17.058;2023-05-14T14:16:23;20.70;45.30
23271;DHT22;11804;51.118;17.058;2023-05-14T14:18:50;20.70;44.80
23271;DHT22;11804;51.118;17.058;2023-05-14T14:21:18;21.10;44.40
23271;DHT22;11804;51.118;17.058;2023-05-14T14:23:46;21.40;43.90
23271;DHT22;11804;51.118;17.058;2023-05-14T14:26:14;21.70;44.00
23271;DHT22;11804;51.118;17.058;2023-05-14T14:28:42;21.30;45.00
23271;DHT22;11804;51.118;17.058;2023-05-14T14:31:10;20.20;46.30
23271;DHT22;11804;51.118;17.058;2023-05-14T14:33:37;20.00;48.20
23271;DHT22;11804;51.118;17.058;2023-05-14T14:36:05;20.00;48.60
23271;DHT22;11804;51.118;17.058;2023-05-14T14:38:33;19.70;48.70
23271;DHT22;11804;51.118;17.058;2023-05-14T14:41:01;19.80;49.00
23271;DHT22;11804;51.118;17.058;2023-05-14T14:43:28;20.10;48.50
23271;DHT22;11804;51.118;17.058;2023-05-14T14:45:57;20.20;48.40
23271;DHT22;11804;51.118;17.058;2023-05-14T14:48:34;19.80;49.20
23271;DHT22;11804;51.118;17.058;2023-05-14T14:51:06;19.80;49.30
23271;DHT22;11804;51.118;17.058;2023-05-14T14:53:35;19.80;49.60
23271;DHT22;11804;51.118;17.058;2023-05-14T14:56:03;20.30;49.30
23271;DHT22;11804;51.118;17.058;2023-05-14T14:58:31;20.20;47.60
23271;DHT22;11804;51.118;17.058;2023-05-14T15:01:00;20.40;47.30
23271;DHT22;11804;51.118;17.058;2023-05-14T15:03:27;20.70;45.70
23271;DHT22;11804;51.118;17.058;2023-05-14T15:05:55;20.80;44.00
23271;DHT22;11804;51.118;17.058;2023-05-14T15:08:27;20.90;44.00
23271;DHT22;11804;51.118;17.058;2023-05-14T15:10:55;20.90;44.20
23271;DHT22;11804;51.118;17.058;2023-05-14T15:13:23;20.80;44.50
23271;DHT22;11804;51.118;17.058;2023-05-14T15:15:52;20.80;44.50
23271;DHT22;11804;51.118;17.058;2023-05-14T15:18:20;20.60;44.70
23271;DHT22;11804;51.118;17.058;2023-05-14T15:20:48;20.20;45.80
23271;DHT22;11804;51.118;17.058;2023-05-14T15:23:16;20.20;46.20
23271;DHT22;11804;51.118;17.058;2023-05-14T15:25:43;20.10;45.70
23271;DHT22;11804;51.118;17.058;2023-05-14T15:28:11;20.30;46.00
23271;DHT22;11804;51.118;17.058;2023-05-14T15:30:39;20.50;45.80
23271;DHT22;11804;51.118;17.058;2023-05-14T15:33:07;20.60;45.50